sensor_id;sensor_type;location;lat;lon;timestamp;temperature;humidity
68804;SHT31;55787;52.678;13.314;2022-11-21T00:00:31;-3.91;99.55
68804;SHT31;55787;52.678;13.314;2022-11-21T00:02:59;-3.86;99.50
68804;SHT31;55787;52.678;13.314;2022-11-21T00:05:29;-3.79;99.60
68804;SHT31;55787;52.678;13.314;2022-11-21T00:07:57;-3.72;99.81
68804;SHT31;55787;52.678;13.314;2022-11-21T00:10:24;-3.65;99.74
68804;SHT31;55787;52.678;13.314;2022-11-21T00:12:55;-3.60;99.48
68804;SHT31;55787;52.678;13.314;2022-11-21T00:15:24;-3.58;99.21
68804;SHT31;55787;52.678;13.314;2022-11-21T00:17:51;-3.56;99.06
68804;SHT31;55787;52.678;13.314;2022-11-21T00:20:19;-3.63;98.69
68804;SHT31;55787;52.678;13.314;2022-11-21T00:22:47;-3.63;98.72
68804;SHT31;55787;52.678;13.314;2022-11-21T00:25:14;-3.63;99.00
68804;SHT31;55787;52.678;13.314;2022-11-21T00:27:41;-3.59;99.30
68804;SHT31;55787;52.678;13.314;2022-11-21T00:30:09;-3.49;99.49
68804;SHT31;55787;52.678;13.314;2022-11-21T00:32:36;-3.42;99.52
68804;SHT31;55787;52.678;13.314;2022-11-21T00:35:04;-3.41;99.00
68804;SHT31;55787;52.678;13.314;2022-11-21T00:37:31;-3.34;99.18
68804;SHT31;55787;52.678;13.314;2022-11-21T00:39:59;-3.28;99.29
68804;SHT31;55787;52.678;13.314;2022-11-21T00:42:25;-3.24;99.22
68804;SHT31;55787;52.678;13.314;2022-11-21T00:44:52;-3.22;99.11
68804;SHT31;55787;52.678;13.314;2022-11-21T00:47:18;-3.16;98.78
68804;SHT31;55787;52.678;13.314;2022-11-21T00:49:45;-3.19;98.56
68804;SHT31;55787;52.678;13.314;2022-11-21T00:52:12;-3.18;98.67
68804;SHT31;55787;52.678;13.314;2022-11-21T00:54:39;-3.18;98.56
68804;SHT31;55787;52.678;13.314;2022-11-21T00:57:06;-3.15;98.81
68804;SHT31;55787;52.678;13.314;2022-11-21T00:59:33;-3.11;98.85
68804;SHT31;55787;52.678;13.314;2022-11-21T01:01:59;-3.08;98.92
68804;SHT31;55787;52.678;13.314;2022-11-21T01:04:31;-3.03;99.00
68804;SHT31;55787;52.678;13.314;2022-11-21T01:06:57;-3.00;98.79
68804;SHT31;55787;52.678;13.314;2022-11-21T01:09:24;-2.94;98.96
68804;SHT31;55787;52.678;13.314;2022-11-21T01:11:51;-2.97;98.40
68804;SHT31;55787;52.678;13.314;2022-11-21T01:14:18;-2.91;98.99
68804;SHT31;55787;52.678;13.314;2022-11-21T01:16:44;-2.88;98.75
68804;SHT31;55787;52.678;13.314;2022-11-21T01:19:11;-2.87;98.68
68804;SHT31;55787;52.678;13.314;2022-11-21T01:21:38;-2.84;98.49
68804;SHT31;55787;52.678;13.314;2022-11-21T01:24:05;-2.81;98.72
68804;SHT31;55787;52.678;13.314;2022-11-21T01:26:32;-2.77;98.52
68804;SHT31;55787;52.678;13.314;2022-11-21T01:28:58;-2.73;98.75
68804;SHT31;55787;52.678;13.314;2022-11-21T01:31:28;-2.66;98.57
68804;SHT31;55787;52.678;13.314;2022-11-21T01:33:56;-2.66;98.71
68804;SHT31;55787;52.678;13.314;2022-11-21T01:36:32;-2.64;98.44
68804;SHT31;55787;52.678;13.314;2022-11-21T01:39:02;-2.64;98.32
68804;SHT31;55787;52.678;13.314;2022-11-21T01:41:32;-2.64;98.16
68804;SHT31;55787;52.678;13.314;2022-11-21T01:44:08;-2.64;98.10
68804;SHT31;55787;52.678;13.314;2022-11-21T01:46:35;-2.64;98.19
68804;SHT31;55787;52.678;13.314;2022-11-21T01:49:05;-2.60;98.66
68804;SHT31;55787;52.678;13.314;2022-11-21T01:54:22;-2.59;98.39
68804;SHT31;55787;52.678;13.314;2022-11-21T01:59:37;-2.57;98.53
68804;SHT31;55787;52.678;13.314;2022-11-21T02:02:07;-2.53;98.37
68804;SHT31;55787;52.678;13.314;2022-11-21T02:04:35;-2.53;98.38
68804;SHT31;55787;52.678;13.314;2022-11-21T02:07:05;-2.52;98.55
68804;SHT31;55787;52.678;13.314;2022-11-21T02:09:33;-2.48;98.24
68804;SHT31;55787;52.678;13.314;2022-11-21T02:12:05;-2.49;98.26
68804;SHT31;55787;52.678;13.314;2022-11-21T02:14:34;-2.50;98.14
68804;SHT31;55787;52.678;13.314;2022-11-21T02:17:04;-2.52;98.33
68804;SHT31;55787;52.678;13.314;2022-11-21T02:27:22;-2.49;98.22
68804;SHT31;55787;52.678;13.314;2022-11-21T02:29:49;-2.49;98.28
68804;SHT31;55787;52.678;13.314;2022-11-21T02:32:27;-2.48;98.15
68804;SHT31;55787;52.678;13.314;2022-11-21T02:34:57;-2.45;98.13
68804;SHT31;55787;52.678;13.314;2022-11-21T02:37:23;-2.46;98.06
68804;SHT31;55787;52.678;13.314;2022-11-21T02:39:50;-2.42;98.36
68804;SHT31;55787;52.678;13.314;2022-11-21T02:42:34;-2.41;98.30
68804;SHT31;55787;52.678;13.314;2022-11-21T02:45:17;-2.39;98.21
68804;SHT31;55787;52.678;13.314;2022-11-21T02:47:45;-2.41;98.33
68804;SHT31;55787;52.678;13.314;2022-11-21T02:50:21;-2.35;98.37
68804;SHT31;55787;52.678;13.314;2022-11-21T02:52:49;-2.36;98.41
68804;SHT31;55787;52.678;13.314;2022-11-21T02:55:16;-2.31;98.43
68804;SHT31;55787;52.678;13.314;2022-11-21T02:57:42;-2.33;98.40
68804;SHT31;55787;52.678;13.314;2022-11-21T03:00:10;-2.33;98.26
68804;SHT31;55787;52.678;13.314;2022-11-21T03:02:37;-2.29;98.48
68804;SHT31;55787;52.678;13.314;2022-11-21T03:05:05;-2.33;98.11
68804;SHT31;55787;52.678;13.314;2022-11-21T03:07:33;-2.31;98.18
68804;SHT31;55787;52.678;13.314;2022-11-21T03:10:00;-2.31;98.33
68804;SHT31;55787;52.678;13.314;2022-11-21T03:12:27;-2.28;98.31
68804;SHT31;55787;52.678;13.314;2022-11-21T03:14:53;-2.29;98.07
68804;SHT31;55787;52.678;13.314;2022-11-21T03:17:22;-2.29;98.13
68804;SHT31;55787;52.678;13.314;2022-11-21T03:19:49;-2.31;98.16
68804;SHT31;55787;52.678;13.314;2022-11-21T03:22:15;-2.26;98.19
68804;SHT31;55787;52.678;13.314;2022-11-21T03:24:42;-2.29;97.89
68804;SHT31;55787;52.678;13.314;2022-11-21T03:27:09;-2.26;98.02
68804;SHT31;55787;52.678;13.314;2022-11-21T03:29:35;-2.26;97.95
68804;SHT31;55787;52.678;13.314;2022-11-21T03:32:02;-2.25;97.92
68804;SHT31;55787;52.678;13.314;2022-11-21T03:34:29;-2.25;97.92
68804;SHT31;55787;52.678;13.314;2022-11-21T03:36:56;-2.23;98.04
68804;SHT31;55787;52.678;13.314;2022-11-21T03:39:22;-2.22;97.94
68804;SHT31;55787;52.678;13.314;2022-11-21T03:41:49;-2.19;97.96
68804;SHT31;55787;52.678;13.314;2022-11-21T03:44:16;-2.18;98.23
68804;SHT31;55787;52.678;13.314;2022-11-21T03:46:44;-2.15;98.00
68804;SHT31;55787;52.678;13.314;2022-11-21T03:49:12;-2.15;97.97
68804;SHT31;55787;52.678;13.314;2022-11-21T03:51:39;-2.14;97.88
68804;SHT31;55787;52.678;13.314;2022-11-21T03:54:06;-2.18;97.71
68804;SHT31;55787;52.678;13.314;2022-11-21T03:56:33;-2.16;97.69
68804;SHT31;55787;52.678;13.314;2022-11-21T03:59:00;-2.15;97.79
68804;SHT31;55787;52.678;13.314;2022-11-21T04:01:28;-2.12;97.78
68804;SHT31;55787;52.678;13.314;2022-11-21T04:04:01;-2.12;97.79
68804;SHT31;55787;52.678;13.314;2022-11-21T04:06:28;-2.11;97.63
68804;SHT31;55787;52.678;13.314;2022-11-21T04:08:56;-2.09;97.66
68804;SHT31;55787;52.678;13.314;2022-11-21T04:11:23;-2.11;97.61
68804;SHT31;55787;52.678;13.314;2022-11-21T04:13:51;-2.11;97.47
68804;SHT31;55787;52.678;13.314;2022-11-21T04:16:18;-2.08;97.61
68804;SHT31;55787;52.678;13.314;2022-11-21T04:18:45;-2.09;97.52
68804;SHT31;55787;52.678;13.314;2022-11-21T04:21:12;-2.09;97.52
68804;SHT31;55787;52.678;13.314;2022-11-21T04:23:38;-2.09;97.53
68804;SHT31;55787;52.678;13.314;2022-11-21T04:26:05;-2.08;97.70
68804;SHT31;55787;52.678;13.314;2022-11-21T04:28:32;-2.06;97.55
68804;SHT31;55787;52.678;13.314;2022-11-21T04:31:06;-2.06;97.42
68804;SHT31;55787;52.678;13.314;2022-11-21T04:33:37;-2.05;97.46
68804;SHT31;55787;52.678;13.314;2022-11-21T04:36:06;-2.06;97.57
68804;SHT31;55787;52.678;13.314;2022-11-21T04:38:33;-2.04;97.57
68804;SHT31;55787;52.678;13.314;2022-11-21T04:41:00;-2.02;97.56
68804;SHT31;55787;52.678;13.314;2022-11-21T04:43:26;-2.01;97.62
68804;SHT31;55787;52.678;13.314;2022-11-21T04:45:53;-1.97;97.42
68804;SHT31;55787;52.678;13.314;2022-11-21T04:48:20;-1.97;97.26
68804;SHT31;55787;52.678;13.314;2022-11-21T04:50:46;-1.94;97.41
68804;SHT31;55787;52.678;13.314;2022-11-21T04:53:13;-1.95;97.14
68804;SHT31;55787;52.678;13.314;2022-11-21T04:55:40;-1.94;96.78
68804;SHT31;55787;52.678;13.314;2022-11-21T04:58:06;-1.95;96.76
68804;SHT31;55787;52.678;13.314;2022-11-21T05:00:33;-1.92;97.09
68804;SHT31;55787;52.678;13.314;2022-11-21T05:03:03;-1.84;97.14
68804;SHT31;55787;52.678;13.314;2022-11-21T05:05:31;-1.83;97.03
68804;SHT31;55787;52.678;13.314;2022-11-21T05:07:58;-1.84;96.89
68804;SHT31;55787;52.678;13.314;2022-11-21T05:10:24;-1.81;96.99
68804;SHT31;55787;52.678;13.314;2022-11-21T05:12:58;-1.84;97.11
68804;SHT31;55787;52.678;13.314;2022-11-21T05:15:44;-1.83;97.15
68804;SHT31;55787;52.678;13.314;2022-11-21T05:18:11;-1.81;97.20
68804;SHT31;55787;52.678;13.314;2022-11-21T05:20:38;-1.80;96.78
68804;SHT31;55787;52.678;13.314;2022-11-21T05:23:05;-1.78;96.83
68804;SHT31;55787;52.678;13.314;2022-11-21T05:25:31;-1.78;96.85
68804;SHT31;55787;52.678;13.314;2022-11-21T05:27:58;-1.84;96.98
68804;SHT31;55787;52.678;13.314;2022-11-21T05:30:25;-1.83;97.07
68804;SHT31;55787;52.678;13.314;2022-11-21T05:32:52;-1.80;97.17
68804;SHT31;55787;52.678;13.314;2022-11-21T05:35:19;-1.80;96.95
68804;SHT31;55787;52.678;13.314;2022-11-21T05:37:45;-1.81;96.98
68804;SHT31;55787;52.678;13.314;2022-11-21T05:40:12;-1.78;96.91
68804;SHT31;55787;52.678;13.314;2022-11-21T05:42:39;-1.83;96.77
68804;SHT31;55787;52.678;13.314;2022-11-21T05:45:25;-1.84;96.74
68804;SHT31;55787;52.678;13.314;2022-11-21T05:47:52;-1.88;96.59
68804;SHT31;55787;52.678;13.314;2022-11-21T05:50:19;-1.91;96.68
68804;SHT31;55787;52.678;13.314;2022-11-21T05:52:45;-1.97;96.56
68804;SHT31;55787;52.678;13.314;2022-11-21T05:55:12;-2.01;96.27
68804;SHT31;55787;52.678;13.314;2022-11-21T05:57:39;-2.08;96.76
68804;SHT31;55787;52.678;13.314;2022-11-21T06:00:07;-2.08;96.99
68804;SHT31;55787;52.678;13.314;2022-11-21T06:02:34;-2.08;96.93
68804;SHT31;55787;52.678;13.314;2022-11-21T06:05:19;-2.09;96.84
68804;SHT31;55787;52.678;13.314;2022-11-21T06:07:46;-2.14;96.70
68804;SHT31;55787;52.678;13.314;2022-11-21T06:10:12;-2.15;96.61
68804;SHT31;55787;52.678;13.314;2022-11-21T06:12:39;-2.18;96.78
68804;SHT31;55787;52.678;13.314;2022-11-21T06:15:06;-2.19;97.05
68804;SHT31;55787;52.678;13.314;2022-11-21T06:17:33;-2.21;97.41
68804;SHT31;55787;52.678;13.314;2022-11-21T06:19:59;-2.22;97.04
68804;SHT31;55787;52.678;13.314;2022-11-21T06:22:26;-2.23;96.93
68804;SHT31;55787;52.678;13.314;2022-11-21T06:24:53;-2.26;97.08
68804;SHT31;55787;52.678;13.314;2022-11-21T06:27:19;-2.25;97.32
68804;SHT31;55787;52.678;13.314;2022-11-21T06:29:46;-2.26;96.86
68804;SHT31;55787;52.678;13.314;2022-11-21T06:32:12;-2.28;97.11
68804;SHT31;55787;52.678;13.314;2022-11-21T06:34:39;-2.28;97.37
68804;SHT31;55787;52.678;13.314;2022-11-21T06:37:06;-2.28;97.57
68804;SHT31;55787;52.678;13.314;2022-11-21T06:39:32;-2.22;97.47
68804;SHT31;55787;52.678;13.314;2022-11-21T06:42:00;-2.19;97.42
68804;SHT31;55787;52.678;13.314;2022-11-21T06:44:26;-2.16;97.27
68804;SHT31;55787;52.678;13.314;2022-11-21T06:46:54;-2.16;97.11
68804;SHT31;55787;52.678;13.314;2022-11-21T06:49:20;-2.12;97.16
68804;SHT31;55787;52.678;13.314;2022-11-21T06:51:47;-2.09;97.30
68804;SHT31;55787;52.678;13.314;2022-11-21T06:54:14;-2.02;97.10
68804;SHT31;55787;52.678;13.314;2022-11-21T06:56:43;-2.01;97.25
68804;SHT31;55787;52.678;13.314;2022-11-21T06:59:09;-1.88;96.56
68804;SHT31;55787;52.678;13.314;2022-11-21T07:01:36;-1.88;96.30
68804;SHT31;55787;52.678;13.314;2022-11-21T07:04:03;-1.83;96.37
68804;SHT31;55787;52.678;13.314;2022-11-21T07:06:30;-1.77;96.14
68804;SHT31;55787;52.678;13.314;2022-11-21T07:08:56;-1.80;96.24
68804;SHT31;55787;52.678;13.314;2022-11-21T07:11:43;-1.75;96.21
68804;SHT31;55787;52.678;13.314;2022-11-21T07:14:10;-1.83;96.07
68804;SHT31;55787;52.678;13.314;2022-11-21T07:16:37;-1.83;96.47
68804;SHT31;55787;52.678;13.314;2022-11-21T07:19:03;-1.80;96.73
68804;SHT31;55787;52.678;13.314;2022-11-21T07:21:30;-1.74;96.70
68804;SHT31;55787;52.678;13.314;2022-11-21T07:23:57;-1.70;96.29
68804;SHT31;55787;52.678;13.314;2022-11-21T07:26:24;-1.74;96.44
68804;SHT31;55787;52.678;13.314;2022-11-21T07:28:51;-1.71;96.63
68804;SHT31;55787;52.678;13.314;2022-11-21T07:31:17;-1.70;96.28
68804;SHT31;55787;52.678;13.314;2022-11-21T07:33:44;-1.63;96.23
68804;SHT31;55787;52.678;13.314;2022-11-21T07:36:12;-1.61;96.16
68804;SHT31;55787;52.678;13.314;2022-11-21T07:38:39;-1.66;96.03
68804;SHT31;55787;52.678;13.314;2022-11-21T07:41:08;-1.63;95.95
68804;SHT31;55787;52.678;13.314;2022-11-21T07:43:35;-1.59;95.83
68804;SHT31;55787;52.678;13.314;2022-11-21T07:46:02;-1.63;95.73
68804;SHT31;55787;52.678;13.314;2022-11-21T07:48:29;-1.57;96.07
68804;SHT31;55787;52.678;13.314;2022-11-21T07:50:55;-1.54;95.74
68804;SHT31;55787;52.678;13.314;2022-11-21T07:53:22;-1.56;95.53
68804;SHT31;55787;52.678;13.314;2022-11-21T07:55:49;-1.54;95.84
68804;SHT31;55787;52.678;13.314;2022-11-21T07:58:16;-1.50;95.67
68804;SHT31;55787;52.678;13.314;2022-11-21T08:00:43;-1.56;95.29
68804;SHT31;55787;52.678;13.314;2022-11-21T08:03:11;-1.61;95.50
68804;SHT31;55787;52.678;13.314;2022-11-21T08:05:40;-1.47;95.26
68804;SHT31;55787;52.678;13.314;2022-11-21T08:08:08;-1.50;94.91
68804;SHT31;55787;52.678;13.314;2022-11-21T08:10:39;-1.60;94.93
68804;SHT31;55787;52.678;13.314;2022-11-21T08:13:06;-1.56;94.83
68804;SHT31;55787;52.678;13.314;2022-11-21T08:15:34;-1.57;94.71
68804;SHT31;55787;52.678;13.314;2022-11-21T08:18:08;-1.70;94.62
68804;SHT31;55787;52.678;13.314;2022-11-21T08:20:35;-1.71;95.01
68804;SHT31;55787;52.678;13.314;2022-11-21T08:23:02;-1.68;94.78
68804;SHT31;55787;52.678;13.314;2022-11-21T08:25:29;-1.66;94.70
68804;SHT31;55787;52.678;13.314;2022-11-21T08:27:56;-1.71;94.70
68804;SHT31;55787;52.678;13.314;2022-11-21T08:30:23;-1.66;94.61
68804;SHT31;55787;52.678;13.314;2022-11-21T08:32:50;-1.68;94.56
68804;SHT31;55787;52.678;13.314;2022-11-21T08:35:17;-1.70;94.80
68804;SHT31;55787;52.678;13.314;2022-11-21T08:37:44;-1.71;94.19
68804;SHT31;55787;52.678;13.314;2022-11-21T08:40:11;-1.54;94.07
68804;SHT31;55787;52.678;13.314;2022-11-21T08:42:37;-1.59;94.00
68804;SHT31;55787;52.678;13.314;2022-11-21T08:45:04;-1.67;93.62
68804;SHT31;55787;52.678;13.314;2022-11-21T08:47:32;-1.68;94.35
68804;SHT31;55787;52.678;13.314;2022-11-21T08:49:59;-1.95;95.20
68804;SHT31;55787;52.678;13.314;2022-11-21T08:52:34;-1.92;95.21
68804;SHT31;55787;52.678;13.314;2022-11-21T08:55:00;-1.80;94.54
68804;SHT31;55787;52.678;13.314;2022-11-21T08:57:27;-1.81;94.74
68804;SHT31;55787;52.678;13.314;2022-11-21T08:59:54;-1.74;94.81
68804;SHT31;55787;52.678;13.314;2022-11-21T09:02:21;-1.71;94.71
68804;SHT31;55787;52.678;13.314;2022-11-21T09:04:48;-1.64;94.23
68804;SHT31;55787;52.678;13.314;2022-11-21T09:07:14;-1.63;94.23
68804;SHT31;55787;52.678;13.314;2022-11-21T09:09:41;-1.67;94.51
68804;SHT31;55787;52.678;13.314;2022-11-21T09:12:08;-1.63;94.53
68804;SHT31;55787;52.678;13.314;2022-11-21T09:14:34;-1.60;95.20
68804;SHT31;55787;52.678;13.314;2022-11-21T09:17:20;-1.57;94.45
68804;SHT31;55787;52.678;13.314;2022-11-21T09:20:05;-1.52;94.43
68804;SHT31;55787;52.678;13.314;2022-11-21T09:22:32;-1.49;94.46
68804;SHT31;55787;52.678;13.314;2022-11-21T09:24:59;-1.44;94.67
68804;SHT31;55787;52.678;13.314;2022-11-21T09:27:25;-1.42;94.79
68804;SHT31;55787;52.678;13.314;2022-11-21T09:29:52;-1.42;94.68
68804;SHT31;55787;52.678;13.314;2022-11-21T09:32:20;-1.33;94.26
68804;SHT31;55787;52.678;13.314;2022-11-21T09:34:46;-1.29;93.92
68804;SHT31;55787;52.678;13.314;2022-11-21T09:37:13;-1.30;93.67
68804;SHT31;55787;52.678;13.314;2022-11-21T09:39:39;-1.36;93.78
68804;SHT31;55787;52.678;13.314;2022-11-21T09:47:34;-1.25;94.07
68804;SHT31;55787;52.678;13.314;2022-11-21T09:50:20;-1.12;94.34
68804;SHT31;55787;52.678;13.314;2022-11-21T09:57:43;-1.02;93.37
68804;SHT31;55787;52.678;13.314;2022-11-21T10:00:19;-0.92;93.31
68804;SHT31;55787;52.678;13.314;2022-11-21T10:02:47;-0.93;92.90
68804;SHT31;55787;52.678;13.314;2022-11-21T10:05:14;-0.93;92.81
68804;SHT31;55787;52.678;13.314;2022-11-21T10:07:41;-1.01;93.49
68804;SHT31;55787;52.678;13.314;2022-11-21T10:10:59;-0.96;93.55
68804;SHT31;55787;52.678;13.314;2022-11-21T10:27:18;-0.88;92.13
68804;SHT31;55787;52.678;13.314;2022-11-21T10:29:51;-0.84;92.34
68804;SHT31;55787;52.678;13.314;2022-11-21T10:32:42;-0.80;92.10
68804;SHT31;55787;52.678;13.314;2022-11-21T10:35:16;-0.81;92.39
68804;SHT31;55787;52.678;13.314;2022-11-21T10:37:48;-0.81;92.11
68804;SHT31;55787;52.678;13.314;2022-11-21T10:40:35;-0.75;92.51
68804;SHT31;55787;52.678;13.314;2022-11-21T10:46:10;-0.80;93.04
68804;SHT31;55787;52.678;13.314;2022-11-21T10:48:36;-0.74;92.81
68804;SHT31;55787;52.678;13.314;2022-11-21T10:54:06;-0.88;92.28
68804;SHT31;55787;52.678;13.314;2022-11-21T10:56:54;-1.05;92.71
68804;SHT31;55787;52.678;13.314;2022-11-21T10:59:24;-0.98;93.28
68804;SHT31;55787;52.678;13.314;2022-11-21T11:02:02;-0.81;93.06
68804;SHT31;55787;52.678;13.314;2022-11-21T11:04:46;-0.65;92.13
68804;SHT31;55787;52.678;13.314;2022-11-21T11:07:27;-0.64;91.11
68804;SHT31;55787;52.678;13.314;2022-11-21T11:10:14;-0.65;90.92
68804;SHT31;55787;52.678;13.314;2022-11-21T11:12:41;-0.57;91.96
68804;SHT31;55787;52.678;13.314;2022-11-21T11:15:57;-0.49;90.59
68804;SHT31;55787;52.678;13.314;2022-11-21T11:18:26;-0.62;89.21
68804;SHT31;55787;52.678;13.314;2022-11-21T11:21:10;-0.54;89.12
68804;SHT31;55787;52.678;13.314;2022-11-21T11:23:37;-0.50;89.88
68804;SHT31;55787;52.678;13.314;2022-11-21T11:28:47;-0.41;89.10
68804;SHT31;55787;52.678;13.314;2022-11-21T11:31:14;-0.43;89.38
68804;SHT31;55787;52.678;13.314;2022-11-21T11:48:01;-0.57;89.94
68804;SHT31;55787;52.678;13.314;2022-11-21T11:50:31;-0.64;90.42
68804;SHT31;55787;52.678;13.314;2022-11-21T11:53:10;-0.43;91.00
68804;SHT31;55787;52.678;13.314;2022-11-21T11:55:50;-0.44;89.77
68804;SHT31;55787;52.678;13.314;2022-11-21T11:58:32;-0.43;89.42
68804;SHT31;55787;52.678;13.314;2022-11-21T12:03:58;-0.49;91.61
68804;SHT31;55787;52.678;13.314;2022-11-21T12:06:29;-0.57;91.44
68804;SHT31;55787;52.678;13.314;2022-11-21T12:09:27;-0.61;90.57
68804;SHT31;55787;52.678;13.314;2022-11-21T12:20:36;-0.61;90.65
68804;SHT31;55787;52.678;13.314;2022-11-21T12:23:06;-0.54;90.18
68804;SHT31;55787;52.678;13.314;2022-11-21T12:25:42;-0.53;89.86
68804;SHT31;55787;52.678;13.314;2022-11-21T12:28:25;-0.51;90.91
68804;SHT31;55787;52.678;13.314;2022-11-21T12:36:55;-0.49;90.01
68804;SHT31;55787;52.678;13.314;2022-11-21T12:53:35;-0.61;91.32
68804;SHT31;55787;52.678;13.314;2022-11-21T12:56:36;-0.58;91.07
68804;SHT31;55787;52.678;13.314;2022-11-21T12:59:06;-0.82;91.26
68804;SHT31;55787;52.678;13.314;2022-11-21T13:01:46;-0.80;91.93
68804;SHT31;55787;52.678;13.314;2022-11-21T13:04:36;-0.81;92.44
68804;SHT31;55787;52.678;13.314;2022-11-21T13:07:04;-0.89;91.88
68804;SHT31;55787;52.678;13.314;2022-11-21T13:09:37;-1.08;92.77
68804;SHT31;55787;52.678;13.314;2022-11-21T13:12:13;-1.03;92.05
68804;SHT31;55787;52.678;13.314;2022-11-21T13:14:52;-1.02;92.39
68804;SHT31;55787;52.678;13.314;2022-11-21T13:27:38;-0.99;92.57
68804;SHT31;55787;52.678;13.314;2022-11-21T13:40:38;-1.02;91.82
68804;SHT31;55787;52.678;13.314;2022-11-21T13:45:55;-1.01;91.40
68804;SHT31;55787;52.678;13.314;2022-11-21T14:04:28;-1.05;91.53
68804;SHT31;55787;52.678;13.314;2022-11-21T14:07:26;-1.30;92.32
68804;SHT31;55787;52.678;13.314;2022-11-21T14:09:56;-1.36;92.83
68804;SHT31;55787;52.678;13.314;2022-11-21T14:12:30;-1.33;92.37
68804;SHT31;55787;52.678;13.314;2022-11-21T14:17:52;-1.25;92.87
68804;SHT31;55787;52.678;13.314;2022-11-21T14:21:15;-1.20;92.91
68804;SHT31;55787;52.678;13.314;2022-11-21T14:25:47;-1.17;91.96
68804;SHT31;55787;52.678;13.314;2022-11-21T14:28:21;-1.16;92.02
68804;SHT31;55787;52.678;13.314;2022-11-21T14:31:00;-1.22;92.75
68804;SHT31;55787;52.678;13.314;2022-11-21T14:33:32;-1.28;92.34
68804;SHT31;55787;52.678;13.314;2022-11-21T14:36:12;-1.30;92.74
68804;SHT31;55787;52.678;13.314;2022-11-21T14:38:45;-1.33;93.03
68804;SHT31;55787;52.678;13.314;2022-11-21T14:41:34;-1.42;93.08
68804;SHT31;55787;52.678;13.314;2022-11-21T14:46:37;-1.43;93.35
68804;SHT31;55787;52.678;13.314;2022-11-21T14:51:42;-1.35;93.06
68804;SHT31;55787;52.678;13.314;2022-11-21T14:54:15;-1.32;93.05
68804;SHT31;55787;52.678;13.314;2022-11-21T14:56:46;-1.33;92.66
68804;SHT31;55787;52.678;13.314;2022-11-21T14:59:26;-1.32;91.91
68804;SHT31;55787;52.678;13.314;2022-11-21T15:01:55;-1.44;92.01
68804;SHT31;55787;52.678;13.314;2022-11-21T15:04:31;-1.57;93.20
68804;SHT31;55787;52.678;13.314;2022-11-21T15:06:58;-1.56;93.54
68804;SHT31;55787;52.678;13.314;2022-11-21T15:09:25;-1.66;93.68
68804;SHT31;55787;52.678;13.314;2022-11-21T15:14:58;-1.59;94.07
68804;SHT31;55787;52.678;13.314;2022-11-21T15:17:27;-1.71;93.48
68804;SHT31;55787;52.678;13.314;2022-11-21T15:20:15;-1.75;94.07
68804;SHT31;55787;52.678;13.314;2022-11-21T15:22:43;-1.71;93.99
68804;SHT31;55787;52.678;13.314;2022-11-21T15:27:38;-1.57;93.41
68804;SHT31;55787;52.678;13.314;2022-11-21T15:38:38;-1.60;93.42
68804;SHT31;55787;52.678;13.314;2022-11-21T15:46:29;-1.67;93.88
68804;SHT31;55787;52.678;13.314;2022-11-21T15:48:58;-1.63;92.92
68804;SHT31;55787;52.678;13.314;2022-11-21T15:54:27;-1.56;92.58
68804;SHT31;55787;52.678;13.314;2022-11-21T15:56:54;-1.59;92.97
68804;SHT31;55787;52.678;13.314;2022-11-21T15:59:21;-1.59;93.50
68804;SHT31;55787;52.678;13.314;2022-11-21T16:01:47;-1.52;93.18
68804;SHT31;55787;52.678;13.314;2022-11-21T16:04:14;-1.47;92.54
68804;SHT31;55787;52.678;13.314;2022-11-21T16:06:44;-1.53;92.89
68804;SHT31;55787;52.678;13.314;2022-11-21T16:09:10;-1.49;93.41
68804;SHT31;55787;52.678;13.314;2022-11-21T16:11:37;-1.47;93.39
68804;SHT31;55787;52.678;13.314;2022-11-21T16:14:06;-1.52;93.41
68804;SHT31;55787;52.678;13.314;2022-11-21T16:16:37;-1.46;93.56
68804;SHT31;55787;52.678;13.314;2022-11-21T16:19:10;-1.36;93.06
68804;SHT31;55787;52.678;13.314;2022-11-21T16:21:37;-1.29;92.80
68804;SHT31;55787;52.678;13.314;2022-11-21T16:24:04;-1.23;92.34
68804;SHT31;55787;52.678;13.314;2022-11-21T16:26:31;-1.30;92.59
68804;SHT31;55787;52.678;13.314;2022-11-21T16:28:59;-1.36;93.09
68804;SHT31;55787;52.678;13.314;2022-11-21T16:31:28;-1.35;93.13
68804;SHT31;55787;52.678;13.314;2022-11-21T16:33:55;-1.36;93.03
68804;SHT31;55787;52.678;13.314;2022-11-21T16:36:25;-1.33;93.12
68804;SHT31;55787;52.678;13.314;2022-11-21T16:38:53;-1.36;93.49
68804;SHT31;55787;52.678;13.314;2022-11-21T16:41:21;-1.25;93.13
68804;SHT31;55787;52.678;13.314;2022-11-21T16:43:52;-1.29;93.52
68804;SHT31;55787;52.678;13.314;2022-11-21T16:46:22;-1.30;93.31
68804;SHT31;55787;52.678;13.314;2022-11-21T16:48:59;-1.30;93.63
68804;SHT31;55787;52.678;13.314;2022-11-21T16:51:27;-1.23;93.17
68804;SHT31;55787;52.678;13.314;2022-11-21T16:53:55;-1.29;93.56
68804;SHT31;55787;52.678;13.314;2022-11-21T16:56:22;-1.16;93.11
68804;SHT31;55787;52.678;13.314;2022-11-21T16:58:49;-1.20;92.86
68804;SHT31;55787;52.678;13.314;2022-11-21T17:01:21;-1.23;92.97
68804;SHT31;55787;52.678;13.314;2022-11-21T17:03:49;-1.20;93.24
68804;SHT31;55787;52.678;13.314;2022-11-21T17:06:18;-1.26;93.15
68804;SHT31;55787;52.678;13.314;2022-11-21T17:08:45;-1.20;93.14
68804;SHT31;55787;52.678;13.314;2022-11-21T17:13:44;-1.13;93.01
68804;SHT31;55787;52.678;13.314;2022-11-21T17:16:13;-1.17;93.19
68804;SHT31;55787;52.678;13.314;2022-11-21T17:18:40;-1.26;93.06
68804;SHT31;55787;52.678;13.314;2022-11-21T17:21:12;-1.28;93.49
68804;SHT31;55787;52.678;13.314;2022-11-21T17:23:41;-1.28;93.64
68804;SHT31;55787;52.678;13.314;2022-11-21T17:26:13;-1.23;92.94
68804;SHT31;55787;52.678;13.314;2022-11-21T17:28:40;-1.23;92.94
68804;SHT31;55787;52.678;13.314;2022-11-21T17:31:13;-1.32;93.39
68804;SHT31;55787;52.678;13.314;2022-11-21T17:33:41;-1.39;93.64
68804;SHT31;55787;52.678;13.314;2022-11-21T17:36:12;-1.39;93.88
68804;SHT31;55787;52.678;13.314;2022-11-21T17:38:39;-1.47;94.36
68804;SHT31;55787;52.678;13.314;2022-11-21T17:41:10;-1.36;94.22
68804;SHT31;55787;52.678;13.314;2022-11-21T17:43:37;-1.43;94.08
68804;SHT31;55787;52.678;13.314;2022-11-21T17:46:06;-1.49;94.40
68804;SHT31;55787;52.678;13.314;2022-11-21T17:48:36;-1.52;94.56
68804;SHT31;55787;52.678;13.314;2022-11-21T17:51:06;-1.43;94.28
68804;SHT31;55787;52.678;13.314;2022-11-21T17:53:35;-1.39;93.85
68804;SHT31;55787;52.678;13.314;2022-11-21T17:56:04;-1.43;93.84
68804;SHT31;55787;52.678;13.314;2022-11-21T17:58:32;-1.38;93.63
68804;SHT31;55787;52.678;13.314;2022-11-21T18:01:00;-1.43;93.96
68804;SHT31;55787;52.678;13.314;2022-11-21T18:03:28;-1.44;93.93
68804;SHT31;55787;52.678;13.314;2022-11-21T18:06:07;-1.39;93.84
68804;SHT31;55787;52.678;13.314;2022-11-21T18:08:36;-1.46;93.59
68804;SHT31;55787;52.678;13.314;2022-11-21T18:11:04;-1.53;93.86
68804;SHT31;55787;52.678;13.314;2022-11-21T18:13:32;-1.53;94.16
68804;SHT31;55787;52.678;13.314;2022-11-21T18:16:04;-1.53;94.01
68804;SHT31;55787;52.678;13.314;2022-11-21T18:18:33;-1.54;94.04